createdAt,value
2024-04-11T00:01:34.244Z,8.93
2024-04-11T00:04:36.930Z,8.81
2024-04-11T00:07:42.170Z,8.78
2024-04-11T00:10:45.195Z,8.73
2024-04-11T00:13:50.656Z,8.64
2024-04-11T00:16:53.987Z,8.53
2024-04-11T00:19:59.127Z,8.48
2024-04-11T00:23:01.740Z,8.38
2024-04-11T00:26:07.174Z,8.39
2024-04-11T00:29:12.806Z,8.38
2024-04-11T00:32:18.046Z,8.32
2024-04-11T00:35:21.938Z,8.26
2024-04-11T00:38:28.567Z,8.34
2024-04-11T00:41:31.595Z,8.38
2024-04-11T00:44:38.318Z,8.46
2024-04-11T00:47:42.426Z,8.45
2024-04-11T00:50:50.315Z,8.44
2024-04-11T00:53:58.276Z,8.52
2024-04-11T00:57:02.833Z,8.56
2024-04-11T01:00:12.351Z,8.62
2024-04-11T01:03:16.126Z,8.70
2024-04-11T01:06:21.383Z,8.69
2024-04-11T01:09:26.009Z,8.73
2024-04-11T01:12:31.405Z,8.69
2024-04-11T01:15:35.946Z,8.69
2024-04-11T01:18:41.334Z,8.67
2024-04-11T01:21:44.276Z,8.64
2024-04-11T01:24:49.541Z,8.66
2024-04-11T01:27:54.085Z,8.69
2024-04-11T01:30:59.360Z,8.74
2024-04-11T01:34:05.632Z,8.80
2024-04-11T01:37:08.745Z,8.83
2024-04-11T01:40:18.330Z,8.87
2024-04-11T01:43:20.863Z,8.86
2024-04-11T01:46:26.371Z,8.95
2024-04-11T01:49:32.150Z,8.97
2024-04-11T01:52:37.619Z,8.98
2024-04-11T01:55:43.531Z,9.05
2024-04-11T01:58:46.040Z,9.00
2024-04-11T02:01:51.983Z,9.08
2024-04-11T02:04:55.805Z,9.08
2024-04-11T02:08:03.228Z,9.06
2024-04-11T02:11:09.026Z,9.10
2024-04-11T02:14:14.688Z,9.10
2024-04-11T02:17:17.258Z,9.16
2024-04-11T02:20:22.541Z,9.19
2024-04-11T02:23:30.351Z,9.25
2024-04-11T02:26:36.191Z,9.24
2024-04-11T02:29:38.844Z,9.27
2024-04-11T02:32:45.375Z,9.29
2024-04-11T02:35:48.176Z,9.27
2024-04-11T02:38:53.546Z,9.33
2024-04-11T02:41:56.172Z,9.32
2024-04-11T02:45:02.200Z,9.33
2024-04-11T02:48:05.452Z,9.32
2024-04-11T02:51:10.828Z,9.35
2024-04-11T02:54:14.294Z,9.38
2024-04-11T02:57:20.290Z,9.40
2024-04-11T03:00:25.508Z,9.40
2024-04-11T03:03:28.756Z,9.43
2024-04-11T03:06:36.757Z,9.42
2024-04-11T03:09:43.226Z,9.43
2024-04-11T03:12:45.897Z,9.42
2024-04-11T03:16:02.820Z,9.46
2024-04-11T03:19:05.554Z,9.50
2024-04-11T03:22:11.502Z,9.50
2024-04-11T03:25:14.342Z,9.51
2024-04-11T03:28:20.143Z,9.48
2024-04-11T03:31:22.829Z,9.52
2024-04-11T03:34:28.590Z,9.51
2024-04-11T03:37:31.263Z,9.51
2024-04-11T03:40:36.447Z,9.56
2024-04-11T03:43:45.331Z,9.61
2024-04-11T03:46:50.555Z,9.57
2024-04-11T03:49:57.110Z,9.58
2024-04-11T03:53:02.710Z,9.60
2024-04-11T03:56:12.131Z,9.63
2024-04-11T03:59:17.402Z,9.62
2024-04-11T04:02:20.207Z,9.61
2024-04-11T04:05:26.267Z,9.63
2024-04-11T04:08:29.865Z,9.65
2024-04-11T04:11:35.256Z,9.63
2024-04-11T04:14:38.396Z,9.68
2024-04-11T04:17:44.820Z,9.70
2024-04-11T04:20:55.921Z,9.72
2024-04-11T04:24:04.742Z,9.75
2024-04-11T04:27:08.555Z,9.77
2024-04-11T04:30:14.120Z,9.78
2024-04-11T04:33:17.862Z,9.85
2024-04-11T04:36:27.581Z,9.87
2024-04-11T04:39:32.539Z,9.91
2024-04-11T04:42:37.985Z,9.93
2024-04-11T04:45:42.915Z,9.94
2024-04-11T04:48:49.524Z,9.94
2024-04-11T04:51:53.148Z,10.01
2024-04-11T04:54:58.873Z,9.99
2024-04-11T04:58:04.111Z,10.04
2024-04-11T05:01:08.935Z,10.08
2024-04-11T05:04:17.084Z,10.07
2024-04-11T05:07:21.531Z,10.15
2024-04-11T05:10:28.884Z,10.11
2024-04-11T05:13:33.815Z,10.15
2024-04-11T05:16:43.475Z,10.15
2024-04-11T05:19:46.228Z,10.22
2024-04-11T05:22:54.667Z,10.18
2024-04-11T05:25:59.911Z,10.25
2024-04-11T05:29:03.867Z,10.23
2024-04-11T05:32:10.472Z,10.29
2024-04-11T05:35:13.109Z,10.26
2024-04-11T05:38:18.819Z,10.31
2024-04-11T05:41:24.417Z,10.35
2024-04-11T05:44:27.167Z,10.34
2024-04-11T05:47:33.598Z,10.36
2024-04-11T05:50:39.974Z,10.39
2024-04-11T05:53:46.855Z,10.40
2024-04-11T05:56:49.375Z,10.39
2024-04-11T05:59:56.793Z,10.42
2024-04-11T06:03:09.897Z,10.39
2024-04-11T06:06:15.471Z,10.40
2024-04-11T06:09:18.554Z,10.53
2024-04-11T06:12:24.040Z,10.49
2024-04-11T06:15:43.452Z,10.45
2024-04-11T06:18:50.214Z,10.50
2024-04-11T06:21:55.932Z,10.42
2024-04-11T06:24:58.648Z,10.48
2024-04-11T06:28:03.879Z,10.39
2024-04-11T06:31:06.500Z,10.38
2024-04-11T06:34:13.087Z,10.26
2024-04-11T06:37:15.954Z,10.13
2024-04-11T06:40:21.297Z,10.10
2024-04-11T06:43:26.772Z,10.01
2024-04-11T06:46:30.715Z,9.84
2024-04-11T06:49:40.567Z,9.76
2024-04-11T06:52:43.952Z,9.74
2024-04-11T06:55:50.495Z,9.69
2024-04-11T06:58:53.769Z,9.65
2024-04-11T07:02:01.929Z,9.50
2024-04-11T07:05:04.726Z,9.42
2024-04-11T07:08:10.325Z,9.43
2024-04-11T07:11:28.786Z,9.35
2024-04-11T07:14:32.983Z,9.32
2024-04-11T07:17:43.458Z,9.21
2024-04-11T07:20:52.063Z,9.14
2024-04-11T07:23:59.574Z,9.17
2024-04-11T07:27:04.551Z,9.14
2024-04-11T07:30:13.171Z,9.22
2024-04-11T07:33:23.974Z,9.15
2024-04-11T07:36:27.436Z,9.21
2024-04-11T07:39:33.549Z,9.25
2024-04-11T07:42:51.789Z,9.32
2024-04-11T07:46:00.538Z,9.28
2024-04-11T07:49:08.972Z,9.33
2024-04-11T07:52:14.539Z,9.42
2024-04-11T07:55:19.758Z,9.42
2024-04-11T07:58:25.185Z,9.33
2024-04-11T08:01:36.404Z,9.42
2024-04-11T08:04:40.312Z,9.49
2024-04-11T08:07:46.760Z,9.42
2024-04-11T08:11:12.733Z,9.52
2024-04-11T08:14:15.414Z,9.48
2024-04-11T08:17:22.099Z,9.52
2024-04-11T08:20:26.382Z,9.61
2024-04-11T08:23:31.618Z,9.69
2024-04-11T08:26:39.238Z,9.64
2024-04-11T08:29:41.884Z,9.58
2024-04-11T08:32:47.581Z,9.79
2024-04-11T08:35:54.463Z,9.85
2024-04-11T08:39:06.128Z,9.94
2024-04-11T08:42:10.581Z,9.95
2024-04-11T08:45:18.115Z,9.90
2024-04-11T08:48:20.801Z,10.03
2024-04-11T08:51:26.922Z,10.28
2024-04-11T08:54:30.483Z,10.27
2024-04-11T08:57:35.821Z,10.09
2024-04-11T09:00:42.690Z,10.23
2024-04-11T09:03:50.270Z,10.15
2024-04-11T09:06:55.821Z,10.27
2024-04-11T09:09:58.344Z,10.27
2024-04-11T09:13:03.567Z,10.33
2024-04-11T09:16:07.545Z,10.20
2024-04-11T09:19:14.688Z,10.16
2024-04-11T09:22:23.117Z,10.18
2024-04-11T09:25:31.620Z,10.34
2024-04-11T09:28:36.937Z,10.30
2024-04-11T09:31:40.101Z,10.45
2024-04-11T09:34:46.625Z,10.62
2024-04-11T09:37:56.034Z,10.69
2024-04-11T09:41:06.025Z,10.86
2024-04-11T09:44:09.623Z,10.81
2024-04-11T09:47:46.187Z,10.91
2024-04-11T09:50:53.889Z,11.15
2024-04-11T09:54:05.430Z,11.64
2024-04-11T09:57:13.729Z,11.98
2024-04-11T10:00:42.671Z,11.89
2024-04-11T10:03:50.380Z,11.74
2024-04-11T10:06:54.688Z,11.75
2024-04-11T10:10:08.239Z,11.88
2024-04-11T10:13:14.011Z,11.79
2024-04-11T10:16:31.647Z,11.79
2024-04-11T10:19:40.153Z,11.80
2024-04-11T10:22:48.662Z,11.87
2024-04-11T10:25:52.063Z,11.95
2024-04-11T10:28:58.468Z,11.90
2024-04-11T10:32:03.338Z,11.96
2024-04-11T10:35:11.942Z,12.20
2024-04-11T10:38:28.194Z,12.19
2024-04-11T10:41:34.554Z,11.96
2024-04-11T10:44:38.737Z,12.10
2024-04-11T10:47:46.045Z,12.18
2024-04-11T10:50:50.048Z,12.51
2024-04-11T10:54:11.039Z,12.54
2024-04-11T10:57:15.294Z,12.58
2024-04-11T11:00:39.717Z,13.02
2024-04-11T11:03:49.557Z,13.04
2024-04-11T11:06:55.718Z,13.48
2024-04-11T11:09:59.032Z,13.53
2024-04-11T11:13:04.313Z,13.45
2024-04-11T11:16:09.376Z,13.07
2024-04-11T11:19:16.770Z,13.51
2024-04-11T11:22:35.531Z,13.77
2024-04-11T11:25:44.230Z,13.59
2024-04-11T11:28:46.888Z,13.82
2024-04-11T11:31:55.550Z,14.03
2024-04-11T11:35:02.529Z,14.09
2024-04-11T11:38:09.477Z,14.34
2024-04-11T11:41:17.180Z,13.93
2024-04-11T11:44:23.092Z,14.50
2024-04-11T11:47:47.497Z,14.14
2024-04-11T11:50:54.167Z,13.90
2024-04-11T11:54:02.195Z,14.12
2024-04-11T11:57:19.298Z,13.77
2024-04-11T12:00:28.154Z,13.95
2024-04-11T12:03:35.305Z,13.96
2024-04-11T12:06:46.042Z,13.99
2024-04-11T12:10:09.278Z,14.01
2024-04-11T12:13:19.822Z,14.15
2024-04-11T12:16:26.139Z,14.06
2024-04-11T12:19:32.482Z,14.21
2024-04-11T12:22:35.201Z,14.28
2024-04-11T12:25:40.521Z,14.28
2024-04-11T12:28:47.034Z,14.18
2024-04-11T12:31:52.478Z,14.18
2024-04-11T12:34:56.905Z,14.03
2024-04-11T12:38:02.369Z,14.03
2024-04-11T12:41:05.367Z,13.81
2024-04-11T12:44:13.608Z,13.73
2024-04-11T12:47:24.656Z,13.60
2024-04-11T12:50:29.891Z,13.64
2024-04-11T12:53:41.498Z,13.47
2024-04-11T12:56:46.656Z,13.46
2024-04-11T12:59:51.904Z,13.37
2024-04-11T13:03:08.823Z,13.66
2024-04-11T13:06:31.021Z,13.51
2024-04-11T13:09:36.287Z,13.62
2024-04-11T13:12:46.032Z,13.69
2024-04-11T13:15:50.777Z,13.74
2024-04-11T13:18:56.147Z,13.82
2024-04-11T13:22:04.239Z,13.73
2024-04-11T13:25:21.892Z,13.59
2024-04-11T13:28:30.304Z,13.77
2024-04-11T13:31:37.497Z,13.88
2024-04-11T13:35:03.468Z,13.86
2024-04-11T13:38:18.816Z,13.70
2024-04-11T13:41:46.947Z,13.89
2024-04-11T13:44:55.234Z,13.82
2024-04-11T13:48:02.900Z,13.56
2024-04-11T13:51:11.529Z,13.66
2024-04-11T13:54:21.446Z,13.60
2024-04-11T13:57:24.588Z,13.38
2024-04-11T14:00:37.936Z,13.48
2024-04-11T14:03:47.074Z,13.53
2024-04-11T14:06:58.939Z,13.49
2024-04-11T14:10:05.511Z,13.60
2024-04-11T14:13:11.582Z,13.78
2024-04-11T14:16:17.713Z,13.54
2024-04-11T14:19:37.481Z,13.78
2024-04-11T14:22:49.728Z,13.95
2024-04-11T14:26:07.008Z,14.09
2024-04-11T14:29:09.874Z,13.95
2024-04-11T14:32:25.463Z,13.98
2024-04-11T14:35:43.029Z,14.02
2024-04-11T14:38:50.052Z,14.47
2024-04-11T14:41:52.763Z,14.50
2024-04-11T14:44:58.058Z,14.22
2024-04-11T14:48:00.970Z,14.48
2024-04-11T14:51:10.568Z,14.21
2024-04-11T14:54:17.979Z,14.27
2024-04-11T14:57:24.928Z,14.37
2024-04-11T15:00:48.478Z,14.26
2024-04-11T15:03:58.733Z,14.23
2024-04-11T15:07:03.834Z,13.93
2024-04-11T15:10:18.986Z,13.95
2024-04-11T15:13:22.191Z,13.85
2024-04-11T15:16:39.571Z,13.66
2024-04-11T15:19:45.573Z,13.68
2024-04-11T15:22:51.318Z,13.66
2024-04-11T15:25:57.581Z,13.55
2024-04-11T15:29:02.573Z,13.63
2024-04-11T15:32:24.396Z,13.55
2024-04-11T15:35:27.308Z,13.59
2024-04-11T15:38:40.096Z,13.63
2024-04-11T15:41:45.041Z,13.57
2024-04-11T15:44:51.987Z,13.44
2024-04-11T15:47:54.834Z,13.42
2024-04-11T15:51:00.266Z,13.42
2024-04-11T15:54:18.027Z,13.37
2024-04-11T15:57:27.341Z,13.38
2024-04-11T16:00:29.987Z,13.33
2024-04-11T16:03:38.651Z,13.25
2024-04-11T16:06:47.871Z,13.26
2024-04-11T16:09:54.713Z,13.33
2024-04-11T16:13:00.637Z,13.32
2024-04-11T16:16:06.894Z,13.28
2024-04-11T16:19:14.766Z,13.26
2024-04-11T16:22:20.629Z,13.30
2024-04-11T16:25:26.007Z,13.29
2024-04-11T16:28:30.091Z,13.30
2024-04-11T16:31:39.814Z,13.35
2024-04-11T16:34:45.205Z,13.34
2024-04-11T16:37:48.368Z,13.26
2024-04-11T16:40:55.156Z,13.37
2024-04-11T16:44:12.370Z,13.32
2024-04-11T16:47:17.404Z,13.36
2024-04-11T16:50:23.542Z,13.33
2024-04-11T16:53:28.357Z,13.42
2024-04-11T16:56:33.773Z,13.36
2024-04-11T16:59:36.660Z,13.23
2024-04-11T17:02:43.507Z,13.27
2024-04-11T17:05:48.569Z,13.25
2024-04-11T17:08:57.434Z,13.20
2024-04-11T17:12:02.313Z,13.29
2024-04-11T17:15:15.021Z,13.18
2024-04-11T17:18:21.308Z,13.19
2024-04-11T17:21:31.267Z,13.19
2024-04-11T17:24:36.852Z,13.10
2024-04-11T17:27:47.143Z,13.00
2024-04-11T17:31:03.888Z,12.98
2024-04-11T17:34:16.975Z,12.91
2024-04-11T17:37:20.224Z,12.83
2024-04-11T17:40:38.770Z,12.74
2024-04-11T17:43:44.810Z,12.71
2024-04-11T17:47:13.042Z,12.73
2024-04-11T17:50:18.424Z,12.68
2024-04-11T17:53:23.026Z,12.63
2024-04-11T17:56:36.269Z,12.65
2024-04-11T17:59:38.927Z,12.61
2024-04-11T18:02:55.257Z,12.61
2024-04-11T18:06:00.534Z,12.56
2024-04-11T18:09:10.908Z,12.57
2024-04-11T18:12:16.664Z,12.56
2024-04-11T18:15:32.295Z,12.57
2024-04-11T18:18:42.281Z,12.52
2024-04-11T18:21:47.620Z,12.48
2024-04-11T18:24:59.758Z,12.46
2024-04-11T18:28:02.412Z,12.38
2024-04-11T18:31:18.150Z,12.33
2024-04-11T18:34:20.794Z,12.32
2024-04-11T18:37:27.180Z,12.33
2024-04-11T18:40:55.752Z,12.30
2024-04-11T18:44:09.884Z,12.26
2024-04-11T18:47:28.093Z,12.25
2024-04-11T18:50:35.172Z,12.26
2024-04-11T18:53:40.275Z,12.24
2024-04-11T18:56:50.215Z,12.25
2024-04-11T18:59:54.811Z,12.26
2024-04-11T19:03:17.167Z,12.30
2024-04-11T19:06:29.542Z,12.29
2024-04-11T19:09:41.019Z,12.26
2024-04-11T19:12:45.387Z,12.28
2024-04-11T19:15:50.962Z,12.28
2024-04-11T19:18:54.604Z,12.27
2024-04-11T19:22:01.704Z,12.29
2024-04-11T19:25:13.686Z,12.30
2024-04-11T19:28:23.165Z,12.30
2024-04-11T19:31:25.821Z,12.32
2024-04-11T19:34:33.626Z,12.34
2024-04-11T19:37:36.185Z,12.30
2024-04-11T19:40:44.118Z,12.31
2024-04-11T19:43:46.675Z,12.28
2024-04-11T19:46:59.869Z,12.29
2024-04-11T19:50:04.504Z,12.27
2024-04-11T19:53:15.136Z,12.27
2024-04-11T19:56:25.597Z,12.29
2024-04-11T19:59:33.610Z,12.32
2024-04-11T20:02:39.175Z,12.30
2024-04-11T20:05:43.497Z,12.30
2024-04-11T20:08:50.529Z,12.28
2024-04-11T20:12:07.873Z,12.29
2024-04-11T20:15:33.971Z,12.29
2024-04-11T20:18:49.045Z,12.27
2024-04-11T20:21:55.129Z,12.28
2024-04-11T20:25:00.913Z,12.29
2024-04-11T20:28:19.921Z,12.30
2024-04-11T20:31:29.876Z,12.29
2024-04-11T20:34:39.652Z,12.29
2024-04-11T20:37:44.800Z,12.31
2024-04-11T20:41:05.407Z,12.30
2024-04-11T20:44:23.092Z,12.29
2024-04-11T20:47:35.480Z,12.31
2024-04-11T20:50:56.978Z,12.31
2024-04-11T20:54:17.871Z,12.32
2024-04-11T20:57:39.235Z,12.31
2024-04-11T21:01:00.183Z,12.29
2024-04-11T21:04:21.437Z,12.31
2024-04-11T21:07:43.187Z,12.30
2024-04-11T21:11:04.465Z,12.30
2024-04-11T21:14:25.842Z,12.30
2024-04-11T21:17:47.123Z,12.27
2024-04-11T21:21:07.980Z,12.22
2024-04-11T21:24:37.405Z,12.18
2024-04-11T21:27:58.425Z,12.17
2024-04-11T21:31:19.799Z,12.15
2024-04-11T21:34:26.938Z,12.12
2024-04-11T21:37:36.851Z,12.07
2024-04-11T21:41:02.281Z,12.09
2024-04-11T21:44:06.042Z,12.06
2024-04-11T21:47:14.012Z,12.04
2024-04-11T21:50:16.571Z,12.03
2024-04-11T21:53:21.715Z,12.01
2024-04-11T21:56:28.510Z,12.00
2024-04-11T21:59:33.826Z,12.04
2024-04-11T22:02:39.201Z,12.08
2024-04-11T22:05:43.468Z,12.09
2024-04-11T22:08:56.238Z,12.01
2024-04-11T22:12:02.913Z,11.99
2024-04-11T22:15:08.558Z,11.97
2024-04-11T22:18:29.566Z,12.00
2024-04-11T22:21:35.215Z,11.97
2024-04-11T22:24:38.224Z,11.95
2024-04-11T22:27:49.313Z,11.94
2024-04-11T22:31:07.353Z,11.95
2024-04-11T22:34:16.242Z,11.95
2024-04-11T22:37:24.559Z,11.96
2024-04-11T22:40:31.993Z,11.96
2024-04-11T22:43:38.461Z,11.96
2024-04-11T22:46:43.655Z,11.95
2024-04-11T22:49:49.485Z,11.95
2024-04-11T22:52:55.066Z,11.96
2024-04-11T22:55:59.404Z,11.97
2024-04-11T22:59:21.614Z,11.96
2024-04-11T23:02:26.395Z,11.97
2024-04-11T23:05:33.064Z,11.96
2024-04-11T23:08:47.929Z,11.97
2024-04-11T23:11:53.678Z,11.95
2024-04-11T23:15:12.204Z,11.97
2024-04-11T23:18:19.781Z,11.96
2024-04-11T23:21:28.189Z,11.93
2024-04-11T23:24:30.728Z,11.98
2024-04-11T23:27:41.151Z,11.96
2024-04-11T23:30:43.799Z,11.96
2024-04-11T23:33:58.590Z,11.97
2024-04-11T23:37:10.383Z,11.94
2024-04-11T23:40:25.171Z,11.95
2024-04-11T23:43:31.335Z,11.96
2024-04-11T23:46:36.223Z,11.95
2024-04-11T23:49:47.293Z,11.97
2024-04-11T23:52:53.124Z,12.00
2024-04-11T23:56:15.265Z,11.97
2024-04-11T23:59:20.488Z,11.95
